Time;durP1;ratioP1;P1;durP2;ratioP2;P2;SDS_P1;SDS_P2;PMS_P1;PMS_P2;Temp;Humidity;BMP_temperature;BMP_pressure;BME280_temperature;BME280_humidity;BME280_pressure;Samples;Min_cycle;Max_cycle;Signal;HPM_P1;HPM_P2
2022/10/03 00:02:00;;;;;;;1.60;1.07;;;15.50;66.10;;;;;;4967358;28;20455;-75
2022/10/03 00:04:48;;;;;;;4.07;1.67;;;15.50;67.30;;;;;;4978321;28;20459;-74
2022/10/03 00:07:31;;;;;;;3.93;1.03;;;15.50;66.10;;;;;;4968116;28;20558;-73
2022/10/03 00:10:09;;;;;;;1.37;1.27;;;15.50;66.00;;;;;;4959514;28;20525;-73
2022/10/03 00:12:50;;;;;;;1.77;1.47;;;15.50;65.90;;;;;;4960014;28;20557;-72
2022/10/03 00:15:25;;;;;;;1.20;1.10;;;15.50;65.90;;;;;;4978082;28;20470;-74
2022/10/03 00:18:02;;;;;;;2.33;1.20;;;15.50;65.90;;;;;;4957629;28;20534;-73
2022/10/03 00:21:06;;;;;;;2.87;1.80;;;15.50;65.90;;;;;;4966289;28;20478;-75
2022/10/03 00:23:42;;;;;;;1.90;1.40;;;15.40;65.80;;;;;;4961372;28;20557;-74
2022/10/03 00:26:29;;;;;;;1.73;1.57;;;15.50;65.90;;;;;;4972118;28;20475;-74
2022/10/03 00:29:36;;;;;;;1.80;0.93;;;15.50;65.90;;;;;;4964998;28;20470;-74
2022/10/03 00:32:21;;;;;;;1.30;0.97;;;15.50;65.80;;;;;;4892548;29;20540;-74
2022/10/03 00:35:02;;;;;;;2.57;2.10;;;15.40;65.70;;;;;;4893452;29;20476;-74
2022/10/03 00:37:36;;;;;;;1.90;1.30;;;15.40;65.80;;;;;;4936173;28;21017;-74
2022/10/03 00:40:36;;;;;;;1.90;1.10;;;15.40;65.70;;;;;;4966194;28;20478;-72
2022/10/03 00:43:34;;;;;;;1.70;1.33;;;15.40;65.80;;;;;;4947336;28;20479;-75
2022/10/03 00:46:37;;;;;;;1.70;1.40;;;15.40;65.70;;;;;;4958766;28;20609;-72
2022/10/03 00:49:37;;;;;;;1.87;1.00;;;15.40;65.70;;;;;;4958361;28;20489;-74
2022/10/03 00:52:37;;;;;;;2.83;1.33;;;15.40;65.70;;;;;;4966462;28;20445;-74
2022/10/03 00:55:23;;;;;;;2.17;1.53;;;15.40;65.70;;;;;;4958411;28;20607;-74
2022/10/03 00:58:08;;;;;;;2.23;1.30;;;15.40;65.70;;;;;;4967268;28;20557;-74
2022/10/03 01:00:38;;;;;;;1.80;1.70;;;15.40;65.60;;;;;;4971309;28;20537;-75
2022/10/03 01:03:38;;;;;;;1.33;0.90;;;15.40;65.60;;;;;;4965179;28;20466;-74
2022/10/03 01:06:20;;;;;;;1.33;1.23;;;15.40;65.60;;;;;;4971117;28;20850;-73
2022/10/03 01:09:19;;;;;;;1.63;1.17;;;15.40;65.70;;;;;;4962698;28;21006;-73
2022/10/03 01:12:10;;;;;;;1.70;1.33;;;15.40;65.60;;;;;;4986786;28;20443;-74
2022/10/03 01:15:10;;;;;;;2.17;1.23;;;15.40;65.60;;;;;;4985560;28;20481;-74
2022/10/03 01:17:48;;;;;;;2.90;1.27;;;15.40;65.70;;;;;;4960206;28;21065;-73
2022/10/03 01:20:34;;;;;;;1.30;1.20;;;15.40;65.60;;;;;;4978936;28;20431;-74
2022/10/03 01:23:48;;;;;;;3.70;1.87;;;15.40;65.60;;;;;;4967966;28;20882;-75
2022/10/03 01:26:49;;;;;;;1.27;1.17;;;15.40;65.70;;;;;;4975595;28;20505;-73
2022/10/03 01:32:18;;;;;;;1.30;1.20;;;15.40;65.60;;;;;;4969406;28;20462;-75
2022/10/03 01:34:52;;;;;;;2.70;1.30;;;15.40;65.60;;;;;;4983154;28;20557;-73
2022/10/03 01:37:28;;;;;;;1.60;1.43;;;15.40;65.60;;;;;;4971324;28;20557;-74
2022/10/03 01:40:07;;;;;;;1.37;1.27;;;15.40;65.60;;;;;;4985205;28;20489;-74
2022/10/03 01:42:44;;;;;;;2.10;1.50;;;15.30;65.50;;;;;;4966229;28;20439;-74
2022/10/03 01:45:28;;;;;;;1.60;1.27;;;15.30;65.50;;;;;;4962714;28;20454;-74
2022/10/03 01:48:01;;;;;;;1.93;1.30;;;15.30;65.50;;;;;;4967407;28;20985;-74
2022/10/03 01:50:36;;;;;;;1.60;1.20;;;15.30;65.40;;;;;;4986275;28;20537;-74
2022/10/03 01:53:12;;;;;;;2.00;1.30;;;15.30;65.50;;;;;;4966958;28;20473;-74
2022/10/03 01:55:49;;;;;;;1.70;1.33;;;15.30;65.50;;;;;;4959328;28;20887;-72
2022/10/03 01:58:25;;;;;;;3.80;1.27;;;15.30;65.50;;;;;;4969924;28;20991;-74
2022/10/03 02:01:06;;;;;;;1.40;1.23;;;15.40;65.60;;;;;;4987264;28;20485;-73
2022/10/03 02:03:45;;;;;;;1.30;1.20;;;15.40;65.50;;;;;;4957768;28;20475;-74
2022/10/03 02:06:22;;;;;;;1.83;1.10;;;15.40;65.50;;;;;;4981516;28;20461;-74
2022/10/03 02:08:58;;;;;;;1.70;1.10;;;15.40;65.40;;;;;;4955794;28;20485;-72
2022/10/03 02:11:34;;;;;;;2.07;1.03;;;15.30;65.30;;;;;;4955654;28;20442;-73
2022/10/03 02:14:17;;;;;;;2.20;1.43;;;15.30;65.30;;;;;;4971194;28;20470;-74
2022/10/03 02:16:57;;;;;;;3.33;1.10;;;15.30;65.30;;;;;;4970580;28;20808;-74
2022/10/03 02:19:29;;;;;;;1.80;1.47;;;15.30;65.40;;;;;;4970667;28;20513;-74
2022/10/03 02:21:59;;;;;;;2.20;1.30;;;15.30;65.30;;;;;;4988252;28;20546;-72
2022/10/03 02:24:50;;;;;;;2.10;1.30;;;15.30;65.20;;;;;;4986026;28;20470;-73
2022/10/03 02:27:51;;;;;;;1.27;1.17;;;15.30;65.30;;;;;;4971835;28;20528;-74
2022/10/03 02:30:26;;;;;;;1.53;1.30;;;15.30;65.40;;;;;;4988506;28;20473;-74
2022/10/03 02:33:33;;;;;;;1.93;1.27;;;15.30;65.80;;;;;;4968240;28;20511;-74
2022/10/03 02:36:40;;;;;;;2.23;1.37;;;15.30;65.20;;;;;;4972518;28;20526;-75
2022/10/03 02:39:31;;;;;;;3.60;1.43;;;15.30;65.20;;;;;;4963493;28;21026;-74
2022/10/03 02:42:32;;;;;;;1.70;1.40;;;15.30;65.20;;;;;;4971885;28;20466;-74
2022/10/03 02:45:45;;;;;;;1.43;1.00;;;15.30;65.20;;;;;;4968870;28;20723;-74
2022/10/03 02:49:10;;;;;;;3.30;1.27;;;15.30;65.20;;;;;;4955847;28;20473;-74
2022/10/03 02:52:29;;;;;;;2.40;1.40;;;15.30;65.20;;;;;;4927909;29;20581;-74
2022/10/03 02:55:16;;;;;;;1.20;1.10;;;15.30;65.20;;;;;;4931845;28;20990;-74
2022/10/03 02:58:38;;;;;;;1.87;1.30;;;15.30;65.20;;;;;;4971893;28;20479;-74
2022/10/03 03:01:51;;;;;;;1.30;1.13;;;15.30;65.20;;;;;;4983140;28;20482;-72
2022/10/03 03:05:01;;;;;;;1.50;1.30;;;15.30;65.20;;;;;;4934449;28;20493;-76
2022/10/03 03:07:38;;;;;;;1.67;1.10;;;15.30;65.20;;;;;;4969799;28;20993;-74
2022/10/03 03:10:47;;;;;;;3.90;1.33;;;15.30;65.10;;;;;;4958215;28;21024;-74
2022/10/03 03:13:52;;;;;;;4.00;1.53;;;15.30;65.00;;;;;;4968465;28;20743;-73
2022/10/03 03:16:48;;;;;;;2.10;1.50;;;15.20;64.80;;;;;;4961096;28;20981;-73
2022/10/03 03:19:32;;;;;;;2.27;1.17;;;15.20;64.70;;;;;;4965567;28;20474;-72
2022/10/03 03:22:14;;;;;;;2.67;1.73;;;15.20;64.80;;;;;;4983989;28;20942;-72
2022/10/03 03:25:00;;;;;;;1.63;1.40;;;15.20;64.70;;;;;;4978028;23;20485;-70
2022/10/03 03:27:50;;;;;;;1.57;1.20;;;15.20;64.70;;;;;;4990106;28;20845;-71
2022/10/03 03:30:22;;;;;;;1.70;1.60;;;15.20;64.70;;;;;;5002371;28;20440;-70
2022/10/03 03:33:06;;;;;;;1.47;1.00;;;15.20;64.70;;;;;;4990152;28;20832;-70
2022/10/03 03:35:50;;;;;;;2.93;1.40;;;15.20;64.70;;;;;;4998699;28;20453;-70
2022/10/03 03:38:31;;;;;;;1.43;1.13;;;15.20;64.60;;;;;;4985036;28;20492;-70
2022/10/03 03:41:20;;;;;;;2.07;1.30;;;15.20;64.70;;;;;;4991476;28;20473;-70
2022/10/03 03:44:24;;;;;;;2.70;1.03;;;15.20;64.70;;;;;;4991909;28;20837;-70
2022/10/03 03:47:09;;;;;;;1.53;1.10;;;15.20;64.70;;;;;;4990154;28;20555;-70
2022/10/03 03:49:57;;;;;;;1.80;1.70;;;15.20;64.70;;;;;;5023936;28;20483;-70
2022/10/03 03:52:40;;;;;;;3.57;1.20;;;15.20;66.00;;;;;;4990959;28;21007;-70
2022/10/03 03:55:48;;;;;;;2.30;1.37;;;15.20;64.60;;;;;;4992896;28;20440;-70
2022/10/03 03:58:30;;;;;;;2.73;1.50;;;15.20;64.60;;;;;;4974315;28;20461;-70
2022/10/03 04:01:23;;;;;;;2.30;1.37;;;15.20;64.60;;;;;;4999092;28;20464;-70
2022/10/03 04:04:05;;;;;;;1.50;1.40;;;15.20;64.70;;;;;;4989068;28;20814;-70
2022/10/03 04:06:46;;;;;;;3.10;1.13;;;15.20;64.70;;;;;;5003384;28;20492;-70
2022/10/03 04:09:31;;;;;;;1.53;1.37;;;15.20;64.60;;;;;;4998041;28;20500;-70
2022/10/03 04:12:09;;;;;;;2.83;1.50;;;15.20;64.60;;;;;;4991288;28;20447;-70
2022/10/03 04:14:56;;;;;;;1.80;1.57;;;15.10;64.40;;;;;;4998032;28;20466;-70
2022/10/03 04:20:43;;;;;;;2.30;0.90;;;15.10;64.30;;;;;;4990915;28;20445;-70
2022/10/03 04:23:24;;;;;;;1.77;1.37;;;15.10;64.40;;;;;;4994450;28;20595;-70
2022/10/03 04:26:20;;;;;;;2.80;1.07;;;15.10;64.40;;;;;;4991137;28;20511;-70
2022/10/03 04:29:23;;;;;;;1.73;1.10;;;15.10;64.30;;;;;;5003540;28;20475;-70
2022/10/03 04:32:07;;;;;;;1.10;1.00;;;15.10;64.30;;;;;;4973420;28;20796;-70
2022/10/03 04:34:50;;;;;;;1.60;1.20;;;15.10;64.40;;;;;;4989486;28;21018;-70
2022/10/03 04:37:24;;;;;;;2.40;1.27;;;15.10;64.30;;;;;;4998664;28;20500;-70
2022/10/03 04:40:08;;;;;;;1.37;1.20;;;15.10;64.30;;;;;;4996369;28;21010;-70
2022/10/03 04:42:48;;;;;;;1.43;1.10;;;15.10;64.40;;;;;;4989709;28;20555;-69
2022/10/03 04:45:37;;;;;;;1.70;1.13;;;15.10;64.40;;;;;;4999316;28;20999;-70
2022/10/03 04:48:15;;;;;;;1.43;1.00;;;15.10;64.30;;;;;;4991723;28;20453;-70
2022/10/03 04:50:49;;;;;;;1.70;1.33;;;15.10;64.40;;;;;;4994401;28;21023;-70
2022/10/03 04:53:29;;;;;;;1.63;1.20;;;15.10;64.40;;;;;;4981174;28;20874;-70
2022/10/03 04:56:14;;;;;;;1.37;1.27;;;15.10;64.30;;;;;;4989877;28;20456;-70
2022/10/03 04:58:55;;;;;;;1.30;1.20;;;15.10;64.30;;;;;;4985938;28;20475;-70
2022/10/03 05:01:29;;;;;;;2.37;1.23;;;15.10;64.30;;;;;;4985701;28;20548;-70
2022/10/03 05:04:09;;;;;;;1.67;1.33;;;15.10;64.30;;;;;;4998200;28;20575;-70
2022/10/03 05:06:47;;;;;;;1.40;1.27;;;15.10;64.20;;;;;;4997085;28;20495;-70
2022/10/03 05:09:33;;;;;;;1.33;1.23;;;15.00;64.20;;;;;;4975742;28;20598;-70
2022/10/03 05:12:10;;;;;;;2.10;0.97;;;15.00;64.20;;;;;;4994407;28;20532;-70
2022/10/03 05:14:52;;;;;;;2.90;1.70;;;15.10;64.30;;;;;;5001553;28;20460;-70
2022/10/03 05:17:27;;;;;;;2.13;1.23;;;15.00;64.30;;;;;;5000510;28;20547;-70
2022/10/03 05:20:23;;;;;;;1.33;1.17;;;15.00;64.30;;;;;;4991283;28;20442;-70
2022/10/03 05:23:02;;;;;;;1.00;0.80;;;15.00;64.20;;;;;;4998633;28;20464;-70
2022/10/03 05:25:52;;;;;;;1.53;1.37;;;15.00;64.30;;;;;;4999144;28;20490;-70
2022/10/03 05:28:30;;;;;;;1.60;1.33;;;15.00;64.30;;;;;;4989243;28;20475;-70
2022/10/03 05:31:12;;;;;;;2.30;1.03;;;15.00;64.20;;;;;;5014325;28;20539;-70
2022/10/03 05:33:47;;;;;;;1.53;1.23;;;15.00;64.40;;;;;;4988808;28;20907;-70
2022/10/03 05:36:30;;;;;;;1.43;0.83;;;15.00;64.40;;;;;;4999961;28;20764;-70
2022/10/03 05:39:28;;;;;;;2.13;1.10;;;15.00;64.20;;;;;;5003864;28;20481;-70
2022/10/03 05:42:22;;;;;;;3.20;1.30;;;15.00;64.30;;;;;;4997912;28;20464;-70
2022/10/03 05:45:01;;;;;;;2.77;1.10;;;15.00;64.30;;;;;;4988476;28;20474;-70
2022/10/03 05:47:48;;;;;;;2.27;1.37;;;15.00;64.30;;;;;;4996071;28;20515;-70
2022/10/03 05:50:40;;;;;;;1.40;1.00;;;15.00;64.30;;;;;;4995804;28;20455;-70
2022/10/03 05:53:32;;;;;;;1.37;1.23;;;15.00;64.30;;;;;;4997036;28;21156;-70
2022/10/03 05:56:08;;;;;;;1.90;1.50;;;15.00;64.30;;;;;;4993187;28;21049;-70
2022/10/03 05:58:54;;;;;;;1.90;1.30;;;15.00;64.30;;;;;;5012445;28;20562;-70
2022/10/03 06:01:41;;;;;;;2.50;1.30;;;15.00;64.30;;;;;;4986355;28;20972;-69
2022/10/03 06:04:34;;;;;;;1.63;1.10;;;15.00;64.30;;;;;;4990907;28;20464;-70
2022/10/03 06:07:20;;;;;;;2.57;1.07;;;15.00;64.40;;;;;;4988380;28;20470;-70
2022/10/03 06:10:18;;;;;;;2.17;1.37;;;15.00;64.40;;;;;;4984804;28;20556;-70
2022/10/03 06:12:58;;;;;;;1.93;1.30;;;15.00;64.40;;;;;;4996265;28;20529;-70
2022/10/03 06:15:54;;;;;;;1.30;1.20;;;14.90;64.40;;;;;;5007414;28;20876;-70
2022/10/03 06:18:47;;;;;;;1.53;1.30;;;14.90;64.30;;;;;;5001218;28;20484;-71
2022/10/03 06:22:09;;;;;;;2.17;1.33;;;15.00;64.40;;;;;;5008615;28;20441;-71
2022/10/03 06:25:16;;;;;;;1.50;1.23;;;14.90;64.30;;;;;;4990883;28;20507;-71
2022/10/03 06:28:25;;;;;;;1.63;1.30;;;14.90;64.20;;;;;;4973226;28;21130;-71
2022/10/03 06:31:20;;;;;;;3.40;1.27;;;14.90;64.20;;;;;;4986598;28;20437;-71
2022/10/03 06:34:22;;;;;;;1.40;1.30;;;14.90;64.10;;;;;;4989317;28;20563;-71
2022/10/03 06:37:19;;;;;;;4.20;1.57;;;14.90;64.20;;;;;;5018945;28;20967;-71
2022/10/03 06:40:22;;;;;;;1.30;1.10;;;14.90;64.30;;;;;;5007225;28;20980;-71
2022/10/03 06:43:11;;;;;;;2.17;1.53;;;14.90;64.20;;;;;;4994149;28;20468;-70
2022/10/03 06:46:18;;;;;;;1.93;1.37;;;14.90;65.50;;;;;;4996283;28;20451;-69
2022/10/03 06:49:20;;;;;;;2.40;1.10;;;14.90;64.20;;;;;;4994644;28;20528;-69
2022/10/03 06:52:12;;;;;;;3.50;1.53;;;14.90;64.20;;;;;;4990585;28;20448;-70
2022/10/03 06:55:26;;;;;;;1.20;1.00;;;14.90;64.30;;;;;;4992847;28;20611;-71
2022/10/03 06:58:34;;;;;;;1.80;1.30;;;14.90;64.20;;;;;;5006162;28;20980;-70
2022/10/03 07:01:37;;;;;;;2.17;1.30;;;14.90;64.20;;;;;;4999730;28;20488;-70
2022/10/03 07:04:34;;;;;;;1.60;1.10;;;14.90;64.20;;;;;;4993733;28;20480;-70
2022/10/03 07:07:32;;;;;;;1.33;1.20;;;14.90;64.20;;;;;;4995969;28;20493;-70
2022/10/03 07:10:25;;;;;;;1.77;1.00;;;14.90;64.10;;;;;;4981589;28;20462;-71
2022/10/03 07:13:38;;;;;;;3.07;1.47;;;14.90;64.10;;;;;;4992417;28;20524;-70
2022/10/03 07:16:42;;;;;;;2.53;1.40;;;14.90;64.20;;;;;;4996756;28;22367;-71
2022/10/03 07:19:43;;;;;;;2.10;1.13;;;14.90;64.30;;;;;;4990749;28;20533;-70
2022/10/03 07:22:59;;;;;;;1.80;1.13;;;14.90;64.20;;;;;;4990614;28;20471;-69
2022/10/03 07:26:07;;;;;;;1.47;1.17;;;14.90;64.20;;;;;;5003758;28;20511;-69
2022/10/03 07:29:02;;;;;;;3.53;1.17;;;14.90;64.10;;;;;;4989291;28;20816;-69
2022/10/03 07:31:44;;;;;;;2.70;1.40;;;14.90;64.20;;;;;;4980967;28;20442;-70
2022/10/03 07:34:49;;;;;;;3.33;1.47;;;14.90;64.30;;;;;;4990453;28;20485;-70
2022/10/03 07:40:51;;;;;;;1.73;1.50;;;14.90;64.20;;;;;;4991140;28;20940;-70
2022/10/03 07:43:52;;;;;;;3.20;1.30;;;14.90;64.40;;;;;;4982800;28;20589;-70
2022/10/03 07:47:29;;;;;;;2.73;1.53;;;14.90;65.90;;;;;;5004784;28;20919;-70
2022/10/03 07:50:44;;;;;;;1.97;1.50;;;14.90;64.80;;;;;;5007928;28;20979;-70
2022/10/03 07:53:36;;;;;;;2.57;1.70;;;14.80;64.30;;;;;;4900933;29;20545;-70
2022/10/03 07:56:16;;;;;;;2.43;1.30;;;14.90;64.30;;;;;;4911554;29;20480;-70
2022/10/03 07:59:07;;;;;;;1.23;1.13;;;14.90;64.50;;;;;;4977507;28;20522;-71
2022/10/03 08:01:58;;;;;;;2.00;1.47;;;14.90;64.10;;;;;;4998717;28;20509;-70
2022/10/03 08:05:02;;;;;;;1.70;1.03;;;14.90;65.00;;;;;;4995793;28;20527;-69
2022/10/03 08:08:00;;;;;;;1.73;1.20;;;14.90;64.50;;;;;;4992629;28;20971;-70
2022/10/03 08:10:59;;;;;;;1.30;0.83;;;14.90;64.50;;;;;;5001157;28;20429;-70
2022/10/03 08:13:35;;;;;;;1.27;0.90;;;14.90;64.40;;;;;;4990796;28;20472;-71
2022/10/03 08:16:17;;;;;;;2.67;1.23;;;14.90;64.40;;;;;;4974124;28;20452;-70
2022/10/03 08:19:06;;;;;;;2.70;1.90;;;14.90;64.40;;;;;;4991026;28;20469;-71
2022/10/03 08:21:55;;;;;;;1.53;1.30;;;14.90;64.30;;;;;;5022942;28;20540;-71
2022/10/03 08:24:56;;;;;;;3.30;1.43;;;14.90;64.30;;;;;;4974723;28;20532;-71
2022/10/03 08:27:47;;;;;;;2.97;1.20;;;14.90;64.20;;;;;;4980503;28;20476;-71
2022/10/03 08:30:24;;;;;;;1.60;1.30;;;14.90;64.20;;;;;;4987627;28;20460;-71
2022/10/03 08:33:20;;;;;;;2.20;1.30;;;14.90;64.10;;;;;;5012455;28;20461;-71
2022/10/03 08:36:25;;;;;;;1.53;1.20;;;14.90;64.10;;;;;;4977876;28;20563;-71
2022/10/03 08:39:13;;;;;;;1.73;1.07;;;14.90;64.00;;;;;;4985934;28;20585;-70
2022/10/03 08:42:12;;;;;;;2.10;1.30;;;14.90;64.10;;;;;;5013582;28;20967;-70
2022/10/03 08:45:19;;;;;;;4.10;2.30;;;14.90;65.10;;;;;;5003540;28;20979;-71
2022/10/03 08:48:08;;;;;;;2.73;1.50;;;15.00;65.00;;;;;;4986956;28;20575;-70
2022/10/03 08:50:57;;;;;;;2.00;1.60;;;15.00;65.00;;;;;;5014046;28;20535;-69
2022/10/03 08:54:00;;;;;;;2.23;1.40;;;15.00;64.70;;;;;;4996582;28;20555;-70
2022/10/03 08:56:46;;;;;;;3.60;1.73;;;15.00;64.70;;;;;;4995167;28;20499;-70
2022/10/03 08:59:40;;;;;;;3.60;1.60;;;15.00;64.70;;;;;;4982624;28;20488;-70
2022/10/03 09:02:41;;;;;;;2.77;1.50;;;15.00;64.60;;;;;;4987562;28;20507;-70
2022/10/03 09:05:51;;;;;;;2.70;1.67;;;15.00;64.80;;;;;;5008415;28;20461;-70
2022/10/03 09:09:02;;;;;;;3.90;1.40;;;15.00;64.80;;;;;;4981660;28;20551;-69
2022/10/03 09:11:56;;;;;;;4.60;1.87;;;15.00;64.70;;;;;;4933891;28;20456;-72
2022/10/03 09:14:51;;;;;;;9.20;3.03;;;15.00;69.60;;;;;;4993208;28;20855;-72
2022/10/03 09:17:55;;;;;;;6.57;2.70;;;15.00;72.20;;;;;;4982329;28;20889;-73
2022/10/03 09:20:47;;;;;;;8.13;2.87;;;15.00;69.40;;;;;;5001946;28;21003;-73
2022/10/03 09:23:57;;;;;;;6.60;3.10;;;15.10;70.00;;;;;;4984623;28;20651;-73
2022/10/03 09:27:13;;;;;;;5.80;2.30;;;15.10;70.80;;;;;;5014146;23;20543;-68
2022/10/03 09:30:05;;;;;;;8.53;3.17;;;15.10;69.40;;;;;;4979162;28;20563;-69
2022/10/03 09:33:06;;;;;;;4.33;2.00;;;15.20;69.40;;;;;;5003529;28;21030;-66
2022/10/03 09:35:48;;;;;;;10.20;2.40;;;15.20;69.10;;;;;;5001891;28;20450;-67
2022/10/03 09:39:00;;;;;;;10.17;2.37;;;15.20;68.70;;;;;;5017837;28;20560;-68
2022/10/03 09:42:01;;;;;;;6.27;2.07;;;15.10;68.70;;;;;;5001184;28;20490;-67
2022/10/03 09:44:54;;;;;;;6.03;2.40;;;15.10;68.20;;;;;;5017803;28;20464;-66
2022/10/03 09:47:59;;;;;;;6.30;2.10;;;15.10;68.10;;;;;;5004701;28;20467;-68
2022/10/03 09:51:02;;;;;;;10.07;2.57;;;15.00;67.90;;;;;;5023786;28;20443;-67
2022/10/03 09:54:05;;;;;;;3.77;1.90;;;15.00;67.80;;;;;;5018625;28;20516;-68
2022/10/03 09:57:02;;;;;;;4.50;1.47;;;15.00;67.80;;;;;;5005182;28;21052;-69
2022/10/03 10:00:13;;;;;;;3.80;1.70;;;15.00;67.60;;;;;;5011543;28;20468;-68
2022/10/03 10:03:11;;;;;;;3.90;2.00;;;15.00;67.80;;;;;;5007916;28;20480;-68
2022/10/03 10:06:06;;;;;;;4.27;1.87;;;15.00;67.80;;;;;;5030169;28;20485;-67
2022/10/03 10:09:19;;;;;;;3.50;1.63;;;15.00;67.70;;;;;;4974124;28;21006;-67
2022/10/03 10:12:17;;;;;;;3.93;1.73;;;15.00;67.40;;;;;;4942292;28;20865;-66
2022/10/03 10:15:06;;;;;;;5.13;1.70;;;15.00;67.40;;;;;;5006475;28;20468;-67
2022/10/03 10:18:04;;;;;;;2.27;1.27;;;15.00;67.30;;;;;;5030531;28;20878;-67
2022/10/03 10:21:19;;;;;;;2.50;1.47;;;15.00;67.30;;;;;;4965677;28;20479;-69
2022/10/03 10:24:00;;;;;;;2.97;1.30;;;14.90;67.10;;;;;;4972562;28;20480;-69
2022/10/03 10:27:08;;;;;;;3.50;1.60;;;14.90;66.80;;;;;;5010419;28;20477;-69
2022/10/03 10:30:01;;;;;;;2.10;1.50;;;14.90;66.90;;;;;;5003105;28;20456;-67
2022/10/03 10:33:23;;;;;;;3.40;1.50;;;14.90;67.10;;;;;;5011535;28;20441;-69
2022/10/03 10:36:39;;;;;;;2.80;1.30;;;14.90;66.80;;;;;;5025362;28;20447;-66
2022/10/03 10:39:48;;;;;;;2.37;1.40;;;14.90;66.80;;;;;;5019548;28;20475;-67
2022/10/03 10:43:10;;;;;;;7.67;1.10;;;14.90;66.70;;;;;;4973230;28;20463;-67
2022/10/03 10:46:20;;;;;;;4.17;1.43;;;14.90;66.70;;;;;;4918866;28;20450;-68
2022/10/03 10:49:38;;;;;;;3.00;1.40;;;14.90;66.70;;;;;;4993639;28;20494;-67
2022/10/03 10:52:43;;;;;;;3.40;1.70;;;14.90;66.60;;;;;;5027002;28;20440;-68
2022/10/03 10:55:54;;;;;;;2.17;1.43;;;14.90;66.60;;;;;;5007288;28;20975;-69
2022/10/03 10:59:00;;;;;;;2.00;1.40;;;14.90;66.60;;;;;;5027042;28;20871;-67
2022/10/03 11:02:14;;;;;;;2.90;1.30;;;14.90;66.40;;;;;;4996781;28;20447;-66
2022/10/03 11:05:51;;;;;;;3.10;1.53;;;14.90;66.40;;;;;;5024858;28;20468;-68
2022/10/03 11:08:58;;;;;;;2.37;1.33;;;14.90;66.40;;;;;;5000437;28;20441;-69
2022/10/03 11:12:01;;;;;;;2.50;1.40;;;14.90;66.40;;;;;;5001556;28;20546;-68
2022/10/03 11:15:05;;;;;;;2.47;1.50;;;14.90;66.40;;;;;;5011276;28;20463;-68
2022/10/03 11:18:02;;;;;;;1.70;1.00;;;14.90;66.30;;;;;;5027470;28;20471;-68
2022/10/03 11:21:23;;;;;;;1.10;0.83;;;14.90;66.40;;;;;;5007777;28;21049;-68
2022/10/03 11:24:29;;;;;;;2.00;1.23;;;14.90;66.30;;;;;;4923065;29;20491;-68
2022/10/03 11:27:27;;;;;;;6.33;1.67;;;14.90;66.20;;;;;;5016649;28;20460;-68
2022/10/03 11:30:35;;;;;;;1.60;1.00;;;14.90;66.30;;;;;;5007871;28;20858;-67
2022/10/03 11:33:42;;;;;;;4.13;1.50;;;14.90;66.20;;;;;;5025818;28;20447;-68
2022/10/03 11:36:33;;;;;;;4.10;1.40;;;14.90;66.30;;;;;;5008295;28;21081;-65
2022/10/03 11:39:05;;;;;;;2.77;1.40;;;14.90;66.50;;;;;;5015344;28;20554;-69
2022/10/03 11:41:46;;;;;;;3.20;1.33;;;14.90;66.60;;;;;;5009287;28;21026;-69
2022/10/03 11:44:25;;;;;;;1.60;1.07;;;14.90;66.40;;;;;;5001184;28;20483;-67
2022/10/03 11:47:26;;;;;;;3.50;1.33;;;14.90;66.40;;;;;;5015411;28;20463;-67
2022/10/03 11:50:33;;;;;;;5.53;1.70;;;14.90;66.30;;;;;;5006202;28;20965;-66
2022/10/03 11:53:19;;;;;;;1.60;1.47;;;14.90;66.20;;;;;;5018914;28;20812;-68
2022/10/03 11:55:55;;;;;;;2.00;1.23;;;14.90;66.20;;;;;;5033967;28;20838;-67
2022/10/03 11:58:35;;;;;;;2.93;1.40;;;14.90;66.20;;;;;;5031216;28;20466;-67
2022/10/03 12:01:20;;;;;;;2.90;1.27;;;14.90;66.30;;;;;;5009310;28;20455;-67
2022/10/03 12:03:56;;;;;;;1.47;1.03;;;14.90;66.20;;;;;;5016586;28;20467;-67
2022/10/03 12:09:43;;;;;;;2.53;0.90;;;14.90;66.10;;;;;;4994476;28;21006;-68
2022/10/03 12:12:16;;;;;;;1.93;1.70;;;14.90;66.30;;;;;;4993488;28;20447;-66
2022/10/03 12:14:48;;;;;;;3.13;1.57;;;15.00;66.30;;;;;;5001919;28;20463;-67
2022/10/03 12:17:23;;;;;;;0.97;0.80;;;15.00;66.30;;;;;;5005246;28;21947;-67
2022/10/03 12:20:04;;;;;;;1.30;1.10;;;14.90;66.10;;;;;;4991100;28;20557;-66
2022/10/03 12:22:44;;;;;;;2.37;1.20;;;15.00;66.20;;;;;;4987910;28;20974;-69
2022/10/03 12:25:22;;;;;;;1.83;1.20;;;15.00;66.20;;;;;;4997258;28;20955;-68
2022/10/03 12:28:13;;;;;;;3.00;1.43;;;14.90;67.40;;;;;;5000438;28;20463;-67
2022/10/03 12:30:47;;;;;;;3.27;1.43;;;15.00;66.20;;;;;;5026163;28;20528;-68
2022/10/03 12:33:45;;;;;;;2.80;1.40;;;14.90;66.10;;;;;;4983769;28;20488;-68
2022/10/03 12:36:18;;;;;;;3.77;1.20;;;15.00;66.10;;;;;;4997193;28;20472;-66
2022/10/03 12:38:59;;;;;;;1.43;1.00;;;15.00;66.20;;;;;;5004039;28;21014;-68
2022/10/03 12:41:50;;;;;;;1.27;0.97;;;14.90;66.10;;;;;;4999087;28;20519;-68
2022/10/03 12:44:31;;;;;;;3.93;1.40;;;15.00;66.20;;;;;;5001238;28;20472;-68
2022/10/03 12:47:16;;;;;;;2.80;1.00;;;14.90;67.40;;;;;;5020545;28;20464;-68
2022/10/03 12:50:20;;;;;;;2.10;1.17;;;14.90;66.10;;;;;;4987884;28;20456;-67
2022/10/03 12:53:00;;;;;;;1.27;1.00;;;14.90;66.10;;;;;;5007124;28;20917;-67
2022/10/03 12:55:32;;;;;;;2.87;1.20;;;14.90;66.00;;;;;;5006225;28;20775;-67
2022/10/03 12:58:16;;;;;;;2.67;1.30;;;14.90;66.10;;;;;;4994409;28;20506;-68
2022/10/03 13:00:56;;;;;;;1.60;0.90;;;14.90;66.10;;;;;;5014329;28;20463;-67
2022/10/03 13:03:37;;;;;;;2.03;1.20;;;14.90;66.00;;;;;;5013583;28;20467;-73
2022/10/03 13:06:26;;;;;;;1.53;1.00;;;14.90;66.10;;;;;;5013328;28;20479;-67
2022/10/03 13:09:26;;;;;;;2.70;1.00;;;14.90;66.10;;;;;;5025458;28;20806;-68
2022/10/03 13:12:06;;;;;;;1.90;0.97;;;14.90;66.00;;;;;;4989220;28;20463;-68
2022/10/03 13:15:02;;;;;;;1.60;1.20;;;14.90;66.00;;;;;;5022974;28;20456;-69
2022/10/03 13:17:48;;;;;;;5.07;2.20;;;15.00;66.10;;;;;;5002081;28;20217;-66
2022/10/03 13:20:23;;;;;;;1.37;1.00;;;15.00;66.20;;;;;;5009203;28;20444;-67
2022/10/03 13:23:02;;;;;;;2.10;1.00;;;15.00;66.10;;;;;;5008554;28;20459;-69
2022/10/03 13:25:36;;;;;;;5.10;1.20;;;15.00;66.50;;;;;;5001424;28;20510;-68
2022/10/03 13:28:14;;;;;;;2.60;1.07;;;15.10;66.40;;;;;;5023541;28;21483;-67
2022/10/03 13:30:52;;;;;;;4.00;1.30;;;15.00;66.30;;;;;;5011542;28;20477;-66
2022/10/03 13:33:23;;;;;;;3.03;0.93;;;15.10;66.60;;;;;;4994324;28;20464;-67
2022/10/03 13:36:01;;;;;;;3.80;1.13;;;15.10;66.80;;;;;;5024755;28;21004;-67
2022/10/03 13:39:01;;;;;;;1.40;0.87;;;15.10;66.40;;;;;;5034215;28;20518;-68
2022/10/03 13:41:41;;;;;;;4.90;1.60;;;15.10;66.50;;;;;;5021422;28;20480;-68
2022/10/03 13:44:16;;;;;;;5.40;1.67;;;15.10;66.40;;;;;;5025969;28;20503;-69
2022/10/03 13:46:53;;;;;;;4.10;1.87;;;15.10;66.50;;;;;;5009513;28;20994;-68
2022/10/03 13:49:31;;;;;;;1.93;1.33;;;15.10;66.20;;;;;;5007457;28;20521;-68
2022/10/03 13:52:06;;;;;;;2.20;1.20;;;15.10;66.30;;;;;;5007746;28;20974;-68
2022/10/03 13:55:00;;;;;;;4.87;1.17;;;15.10;66.30;;;;;;5001069;28;20475;-67
2022/10/03 13:57:35;;;;;;;2.13;1.10;;;15.10;66.30;;;;;;5010171;28;20475;-68
2022/10/03 14:00:09;;;;;;;3.30;0.93;;;15.10;66.30;;;;;;5010974;28;21005;-69
2022/10/03 14:02:49;;;;;;;3.33;1.20;;;15.10;66.30;;;;;;5007400;28;20464;-67
2022/10/03 14:05:51;;;;;;;3.30;0.93;;;15.10;66.30;;;;;;5008513;28;20452;-67
2022/10/03 14:08:32;;;;;;;1.83;0.80;;;15.10;66.40;;;;;;5001057;28;20859;-67
2022/10/03 14:11:22;;;;;;;1.23;0.70;;;15.10;66.30;;;;;;5010542;28;20479;-67
2022/10/03 14:14:33;;;;;;;1.10;1.00;;;15.10;66.30;;;;;;5026625;28;20515;-66
2022/10/03 14:17:10;;;;;;;4.43;2.00;;;15.10;66.30;;;;;;4999614;28;20476;-68
2022/10/03 14:19:52;;;;;;;5.50;1.10;;;15.10;66.50;;;;;;5011863;28;20554;-68
2022/10/03 14:22:33;;;;;;;2.50;1.17;;;15.10;66.10;;;;;;5011579;28;20999;-68
2022/10/03 14:25:21;;;;;;;4.23;1.00;;;15.20;66.10;;;;;;5007076;28;20440;-74
2022/10/03 14:27:52;;;;;;;3.93;1.20;;;15.20;66.00;;;;;;5010818;28;20466;-73
2022/10/03 14:30:24;;;;;;;2.55;1.40;;;15.10;66.00;;;;;;5025391;28;20441;-74
2022/10/03 14:33:03;;;;;;;2.60;1.47;;;15.20;66.00;;;;;;5009160;28;20189;-73
2022/10/03 14:35:39;;;;;;;1.70;1.03;;;15.20;66.00;;;;;;5021780;28;20442;-72
2022/10/03 14:41:36;;;;;;;2.03;1.13;;;15.10;66.00;;;;;;5021317;28;20464;-73
2022/10/03 14:44:09;;;;;;;5.30;1.00;;;15.10;65.80;;;;;;5011754;28;20591;-73
2022/10/03 14:46:47;;;;;;;2.33;1.30;;;15.10;66.00;;;;;;5019282;28;20454;-73
2022/10/03 14:49:23;;;;;;;4.97;1.20;;;15.10;66.00;;;;;;5011890;28;20467;-73
2022/10/03 14:52:24;;;;;;;2.80;1.00;;;15.10;66.00;;;;;;5008763;28;20436;-73
2022/10/03 14:54:56;;;;;;;3.00;1.10;;;15.10;65.90;;;;;;5008233;28;20464;-74
2022/10/03 14:57:34;;;;;;;1.77;0.80;;;15.10;66.00;;;;;;5014367;28;20531;-73
2022/10/03 15:00:35;;;;;;;1.90;0.90;;;15.10;65.90;;;;;;4974720;28;20527;-73
2022/10/03 15:03:20;;;;;;;2.07;0.97;;;15.10;65.90;;;;;;5018468;28;20479;-74